Archival Weather

Vermilion Rgnl

Danville, Illinois (KDNV)

Report from: Tuesday, March 26, 2024 3:55 AM CDT
Current time: Sunday, July 14, 2024 5:45 AM CDT

Current weather – Weather history – Daily summaries
Weather forecast

Temperature11.7°C (53.1°F)
Dew point9.5°C (49.1°F)
Winds 21 kts (10.8 m/s, 24.2 mph) South-Southeast (160°)
Wind gusts 26 kts (13.4 m/s, 29.9 mph)
Visibility10 mi. (16.1 km)
Clouds Ceiling: Overcast 1,500 ft. (457 m)
Altimeter29.47 in.Hg (998 mB)
Relative humidity86 %
Density altitude297 ft. (90 m)
Remarks Fully automated report
Automated weather observing station with precipitation discriminator
Flight conditions Marginal Visual Meteorological Conditions
Raw dataKDNV 260855Z AUTO 16021G26KT 10SM OVC015 12/10 A2947 RMK AO2 T01170095
An error has occurred. This application may no longer respond until reloaded. Reload 🗙